Time,TemperatureF,DewpointF,PressureIn,WindDirection,WindDirectionDegrees,WindSpeedMPH,WindSpeedGustMPH,Humidity,HourlyPrecipIn,Conditions,Clouds,dailyrainin,SolarRadiationWatts/m^2,SoftwareType,DateUTC
2013-11-23 00:00:00,27.5,24.4,30.71,WSW,248,1.0,3.0,88,0.00,,CLR,0.02,0.00,VWS V14.01,2013-11-23 06:00:00,
2013-11-23 00:06:00,27.3,24.2,30.70,WSW,248,1.0,2.0,88,0.00,,CLR,0.00,0.00,VWS V14.01,2013-11-23 06:06:00,
2013-11-23 00:11:00,27.2,24.1,30.70,WSW,248,0.0,0.0,88,0.00,,CLR,0.00,0.00,VWS V14.01,2013-11-23 06:11:00,
2013-11-23 00:16:00,27.0,23.9,30.70,WSW,248,0.0,4.0,88,0.00,,CLR,0.00,0.00,VWS V14.01,2013-11-23 06:16:00,
2013-11-23 00:22:00,26.7,23.6,30.70,WSW,248,0.0,0.0,88,0.00,,CLR,0.00,0.00,VWS V14.01,2013-11-23 06:22:00,
2013-11-23 00:27:00,26.7,23.6,30.70,WSW,248,0.0,1.0,88,0.00,,CLR,0.00,0.00,VWS V14.01,2013-11-23 06:27:00,
2013-11-23 00:33:00,26.6,23.5,30.70,WSW,248,0.0,1.0,88,0.00,,CLR,0.00,0.00,VWS V14.01,2013-11-23 06:33:00,
2013-11-23 00:38:00,26.3,23.5,30.70,WSW,248,0.0,2.0,89,0.00,,CLR,0.00,0.00,VWS V14.01,2013-11-23 06:38:00,
2013-11-23 00:44:00,26.3,23.5,30.70,WSW,248,2.0,5.0,89,0.00,,CLR,0.00,0.00,VWS V14.01,2013-11-23 06:44:00,
2013-11-23 00:50:00,26.0,23.2,30.70,WSW,248,2.0,3.0,89,0.00,,CLR,0.00,0.00,VWS V14.01,2013-11-23 06:50:00,
2013-11-23 00:56:00,25.8,23.0,30.70,WSW,248,0.0,2.0,89,0.00,,CLR,0.00,0.00,VWS V14.01,2013-11-23 06:56:00,
2013-11-23 01:02:00,25.7,22.9,30.71,WSW,248,3.0,3.0,89,0.00,,CLR,0.00,0.00,VWS V14.01,2013-11-23 07:02:00,
2013-11-23 01:07:00,25.7,22.9,30.70,WSW,248,1.0,3.0,89,0.00,,CLR,0.00,0.00,VWS V14.01,2013-11-23 07:07:00,
2013-11-23 01:12:00,25.7,22.9,30.70,WSW,248,0.0,2.0,89,0.00,,CLR,0.00,0.00,VWS V14.01,2013-11-23 07:12:00,
2013-11-23 01:17:00,25.7,22.9,30.70,WSW,248,0.0,1.0,89,0.00,,CLR,0.00,0.00,VWS V14.01,2013-11-23 07:17:00,
2013-11-23 01:22:00,25.7,22.9,30.71,WSW,248,0.0,1.0,89,0.00,,CLR,0.00,0.00,VWS V14.01,2013-11-23 07:22:00,
2013-11-23 01:28:00,25.6,22.8,30.71,WSW,248,2.0,2.0,89,0.00,,CLR,0.00,0.00,VWS V14.01,2013-11-23 07:28:00,
2013-11-23 01:34:00,25.6,22.8,30.71,WSW,248,2.0,2.0,89,0.00,,CLR,0.00,0.00,VWS V14.01,2013-11-23 07:34:00,
2013-11-23 01:39:00,25.4,22.6,30.71,WSW,248,0.0,3.0,89,0.00,,CLR,0.00,0.00,VWS V14.01,2013-11-23 07:39:00,
2013-11-23 01:44:00,25.4,22.6,30.71,WSW,248,1.0,2.0,89,0.00,,CLR,0.00,0.00,VWS V14.01,2013-11-23 07:44:00,
2013-11-23 01:49:00,25.3,22.5,30.71,WSW,248,0.0,0.0,89,0.00,,CLR,0.00,0.00,VWS V14.01,2013-11-23 07:49:00,
2013-11-23 01:54:00,25.1,22.3,30.71,WSW,248,0.0,2.0,89,0.00,,CLR,0.00,0.00,VWS V14.01,2013-11-23 07:54:00,
2013-11-23 02:00:00,25.1,22.3,30.71,WSW,238,4.0,4.0,89,0.00,,CLR,0.00,0.00,VWS V14.01,2013-11-23 08:00:00,
2013-11-23 02:05:00,25.1,22.3,30.71,SSE,167,0.0,2.0,89,0.00,,CLR,0.00,0.00,VWS V14.01,2013-11-23 08:05:00,
2013-11-23 02:10:00,25.1,22.0,30.71,SW,220,0.0,0.0,88,0.00,,CLR,0.00,0.00,VWS V14.01,2013-11-23 08:10:00,
2013-11-23 02:16:00,24.8,21.8,30.72,SW,220,3.0,4.0,88,0.00,,CLR,0.00,0.00,VWS V14.01,2013-11-23 08:16:00,
2013-11-23 02:22:00,24.7,21.7,30.72,SW,221,3.0,3.0,88,0.00,,CLR,0.00,0.00,VWS V14.01,2013-11-23 08:22:00,
2013-11-23 02:27:00,24.7,21.7,30.72,WNW,295,2.0,5.0,88,0.00,,CLR,0.00,0.00,VWS V14.01,2013-11-23 08:27:00,
2013-11-23 02:33:00,24.8,21.8,30.71,SW,232,5.0,6.0,88,0.00,,CLR,0.00,0.00,VWS V14.01,2013-11-23 08:33:00,
2013-11-23 02:39:00,24.8,21.2,30.71,West,271,8.0,8.0,86,0.00,,CLR,0.00,0.00,VWS V14.01,2013-11-23 08:39:00,
2013-11-23 02:44:00,25.0,21.1,30.72,WSW,238,2.0,5.0,85,0.00,,CLR,0.00,0.00,VWS V14.01,2013-11-23 08:44:00,
2013-11-23 02:49:00,25.0,20.9,30.71,West,259,6.0,6.0,84,0.00,,CLR,0.00,0.00,VWS V14.01,2013-11-23 08:49:00,
2013-11-23 02:54:00,25.0,20.6,30.72,WSW,250,2.0,3.0,83,0.00,,CLR,0.00,0.00,VWS V14.01,2013-11-23 08:54:00,
2013-11-23 03:00:00,24.8,20.4,30.72,WSW,255,4.0,5.0,83,0.00,,CLR,0.00,0.00,VWS V14.01,2013-11-23 09:00:00,
2013-11-23 03:05:00,24.8,20.1,30.71,West,266,7.0,7.0,82,0.00,,CLR,0.00,0.00,VWS V14.01,2013-11-23 09:05:00,
2013-11-23 03:10:00,24.8,20.1,30.71,WSW,258,7.0,7.0,82,0.00,,CLR,0.00,0.00,VWS V14.01,2013-11-23 09:10:00,
2013-11-23 03:16:00,24.8,19.8,30.71,SW,233,6.0,7.0,81,0.00,,CLR,0.00,0.00,VWS V14.01,2013-11-23 09:16:00,
2013-11-23 03:22:00,24.7,19.4,30.71,West,269,3.0,5.0,80,0.00,,CLR,0.00,0.00,VWS V14.01,2013-11-23 09:22:00,
2013-11-23 03:27:00,24.7,19.4,30.71,WSW,257,2.0,5.0,80,0.00,,CLR,0.00,0.00,VWS V14.01,2013-11-23 09:27:00,
2013-11-23 03:32:00,24.7,19.1,30.71,West,272,4.0,5.0,79,0.00,,CLR,0.00,0.00,VWS V14.01,2013-11-23 09:32:00,
2013-11-23 03:37:00,24.7,18.5,30.70,West,275,1.0,3.0,77,0.00,,CLR,0.00,0.00,VWS V14.01,2013-11-23 09:37:00,
2013-11-23 03:42:00,24.5,18.0,30.70,West,261,3.0,4.0,76,0.00,,CLR,0.00,0.00,VWS V14.01,2013-11-23 09:42:00,
2013-11-23 03:47:00,24.4,17.6,30.70,WSW,248,6.0,6.0,75,0.00,,CLR,0.00,0.00,VWS V14.01,2013-11-23 09:47:00,
2013-11-23 03:52:00,24.4,17.0,30.71,WNW,284,3.0,6.0,73,0.00,,CLR,0.00,0.00,VWS V14.01,2013-11-23 09:52:00,
2013-11-23 03:57:00,24.4,17.0,30.70,West,277,2.0,6.0,73,0.00,,CLR,0.00,0.00,VWS V14.01,2013-11-23 09:57:00,
2013-11-23 04:02:00,24.2,16.8,30.71,West,272,5.0,6.0,73,0.00,,CLR,0.00,0.00,VWS V14.01,2013-11-23 10:02:00,
2013-11-23 04:07:00,24.2,16.8,30.71,West,262,2.0,4.0,73,0.00,,CLR,0.00,0.00,VWS V14.01,2013-11-23 10:07:00,
2013-11-23 04:13:00,24.1,17.0,30.71,NW,309,3.0,6.0,74,0.00,,CLR,0.00,0.00,VWS V14.01,2013-11-23 10:13:00,
2013-11-23 04:18:00,24.1,16.7,30.70,WNW,289,0.0,7.0,73,0.00,,CLR,0.00,0.00,VWS V14.01,2013-11-23 10:18:00,
2013-11-23 04:24:00,24.1,16.7,30.70,NW,306,5.0,5.0,73,0.00,,CLR,0.00,0.00,VWS V14.01,2013-11-23 10:24:00,
2013-11-23 04:30:00,23.9,16.5,30.70,NW,323,2.0,4.0,73,0.00,,CLR,0.00,0.00,VWS V14.01,2013-11-23 10:30:00,
2013-11-23 04:36:00,23.9,16.5,30.70,West,273,3.0,3.0,73,0.00,,CLR,0.00,0.00,VWS V14.01,2013-11-23 10:36:00,
2013-11-23 04:41:00,23.8,16.4,30.71,WNW,286,5.0,6.0,73,0.00,,CLR,0.00,0.00,VWS V14.01,2013-11-23 10:41:00,
2013-11-23 04:46:00,23.8,16.4,30.71,West,265,1.0,7.0,73,0.00,,CLR,0.00,0.00,VWS V14.01,2013-11-23 10:46:00,
2013-11-23 04:51:00,23.8,16.4,30.71,WSW,253,3.0,4.0,73,0.00,,CLR,0.00,0.00,VWS V14.01,2013-11-23 10:51:00,
2013-11-23 04:57:00,23.6,16.2,30.72,WNW,286,1.0,4.0,73,0.00,,CLR,0.00,0.00,VWS V14.01,2013-11-23 10:57:00,
2013-11-23 05:02:00,23.6,16.2,30.72,WNW,294,3.0,7.0,73,0.00,,CLR,0.00,0.00,VWS V14.01,2013-11-23 11:02:00,
2013-11-23 05:07:00,23.5,16.1,30.72,NW,315,8.0,9.0,73,0.00,,CLR,0.00,0.00,VWS V14.01,2013-11-23 11:07:00,
2013-11-23 05:12:00,23.5,16.1,30.72,WSW,252,2.0,8.0,73,0.00,,CLR,0.00,0.00,VWS V14.01,2013-11-23 11:12:00,
2013-11-23 05:18:00,23.5,16.1,30.72,NW,305,3.0,5.0,73,0.00,,CLR,0.00,0.00,VWS V14.01,2013-11-23 11:18:00,
2013-11-23 05:23:00,23.3,15.9,30.73,West,275,2.0,7.0,73,0.00,,CLR,0.00,0.00,VWS V14.01,2013-11-23 11:23:00,
2013-11-23 05:28:00,23.3,15.9,30.72,NW,304,2.0,4.0,73,0.00,,CLR,0.00,0.00,VWS V14.01,2013-11-23 11:28:00,
2013-11-23 05:33:00,23.3,15.9,30.72,NW,306,4.0,6.0,73,0.00,,CLR,0.00,0.00,VWS V14.01,2013-11-23 11:33:00,
2013-11-23 05:39:00,23.2,15.8,30.73,NW,311,4.0,5.0,73,0.00,,CLR,0.00,0.00,VWS V14.01,2013-11-23 11:39:00,
2013-11-23 05:44:00,23.2,16.2,30.72,WNW,296,5.0,6.0,74,0.00,,CLR,0.00,0.00,VWS V14.01,2013-11-23 11:44:00,
2013-11-23 05:49:00,23.2,16.2,30.73,WNW,286,3.0,5.0,74,0.00,,CLR,0.00,0.00,VWS V14.01,2013-11-23 11:49:00,
2013-11-23 05:54:00,23.0,16.0,30.73,WNW,289,11.0,11.0,74,0.00,,CLR,0.00,0.00,VWS V14.01,2013-11-23 11:54:00,
2013-11-23 06:00:00,23.0,16.0,30.73,NW,306,2.0,6.0,74,0.00,,CLR,0.00,0.00,VWS V14.01,2013-11-23 12:00:00,
2013-11-23 06:05:00,22.9,15.9,30.74,WNW,298,3.0,10.0,74,0.00,,CLR,0.00,0.00,VWS V14.01,2013-11-23 12:05:00,
2013-11-23 06:10:00,22.7,15.4,30.74,NW,306,4.0,6.0,73,0.00,,CLR,0.00,0.00,VWS V14.01,2013-11-23 12:10:00,
2013-11-23 06:15:00,22.7,15.4,30.74,WNW,287,7.0,7.0,73,0.00,,CLR,0.00,0.00,VWS V14.01,2013-11-23 12:15:00,
2013-11-23 06:20:00,22.5,15.2,30.75,WNW,290,3.0,9.0,73,0.00,,CLR,0.00,0.00,VWS V14.01,2013-11-23 12:20:00,
2013-11-23 06:25:00,22.4,15.4,30.75,WNW,290,2.0,5.0,74,0.00,,CLR,0.00,0.00,VWS V14.01,2013-11-23 12:25:00,
2013-11-23 06:30:00,22.4,15.4,30.75,NW,309,6.0,6.0,74,0.00,,CLR,0.00,0.00,VWS V14.01,2013-11-23 12:30:00,
2013-11-23 06:35:00,22.2,15.2,30.75,North,360,4.0,5.0,74,0.00,,CLR,0.00,0.00,VWS V14.01,2013-11-23 12:35:00,
2013-11-23 06:41:00,22.1,15.1,30.75,WNW,298,3.0,11.0,74,0.00,,CLR,0.00,0.00,VWS V14.01,2013-11-23 12:41:00,
2013-11-23 06:46:00,22.1,15.1,30.75,NW,304,5.0,11.0,74,0.00,,CLR,0.00,0.00,VWS V14.01,2013-11-23 12:46:00,
2013-11-23 06:51:00,21.9,14.9,30.76,WNW,292,2.0,9.0,74,0.00,,CLR,0.00,0.00,VWS V14.01,2013-11-23 12:51:00,
2013-11-23 06:56:00,21.9,14.9,30.76,WNW,297,3.0,5.0,74,0.00,,CLR,0.00,7.00,VWS V14.01,2013-11-23 12:56:00,
2013-11-23 07:01:00,21.9,15.2,30.76,WNW,298,4.0,10.0,75,0.00,,CLR,0.00,14.00,VWS V14.01,2013-11-23 13:01:00,
2013-11-23 07:06:00,21.9,15.2,30.76,West,261,8.0,8.0,75,0.00,,CLR,0.00,18.00,VWS V14.01,2013-11-23 13:06:00,
2013-11-23 07:12:00,21.9,15.2,30.77,NW,307,5.0,7.0,75,0.00,,CLR,0.00,21.00,VWS V14.01,2013-11-23 13:12:00,
2013-11-23 07:17:00,21.9,15.2,30.77,NW,319,3.0,4.0,75,0.00,,CLR,0.00,25.00,VWS V14.01,2013-11-23 13:17:00,
2013-11-23 07:22:00,21.9,15.2,30.77,WNW,298,4.0,9.0,75,0.00,,CLR,0.00,65.00,VWS V14.01,2013-11-23 13:22:00,
2013-11-23 07:28:00,22.1,15.4,30.77,NW,316,3.0,3.0,75,0.00,,CLR,0.00,67.00,VWS V14.01,2013-11-23 13:28:00,
2013-11-23 07:33:00,22.2,15.5,30.78,WNW,290,5.0,6.0,75,0.00,,CLR,0.00,67.00,VWS V14.01,2013-11-23 13:33:00,
2013-11-23 07:38:00,22.4,15.7,30.78,WSW,248,11.0,11.0,75,0.00,,CLR,0.00,123.00,VWS V14.01,2013-11-23 13:38:00,
2013-11-23 07:43:00,22.5,15.8,30.78,North,9,3.0,9.0,75,0.00,,CLR,0.00,148.00,VWS V14.01,2013-11-23 13:43:00,
2013-11-23 07:49:00,22.9,16.2,30.79,WNW,288,8.0,8.0,75,0.00,,CLR,0.00,155.00,VWS V14.01,2013-11-23 13:49:00,
2013-11-23 07:54:00,23.0,16.0,30.79,NNW,342,8.0,12.0,74,0.00,,CLR,0.00,141.00,VWS V14.01,2013-11-23 13:54:00,
2013-11-23 08:00:00,23.0,16.3,30.79,NW,316,1.0,3.0,75,0.00,,CLR,0.00,69.00,VWS V14.01,2013-11-23 14:00:00,
2013-11-23 08:05:00,23.0,16.3,30.79,NNW,342,1.0,5.0,75,0.00,,CLR,0.00,186.00,VWS V14.01,2013-11-23 14:05:00,
2013-11-23 08:10:00,23.2,16.5,30.79,WNW,300,9.0,9.0,75,0.00,,CLR,0.00,183.00,VWS V14.01,2013-11-23 14:10:00,
2013-11-23 08:16:00,23.5,16.8,30.80,WNW,301,4.0,7.0,75,0.00,,CLR,0.00,207.00,VWS V14.01,2013-11-23 14:16:00,
2013-11-23 08:21:00,23.5,16.5,30.80,WNW,295,8.0,8.0,74,0.00,,CLR,0.00,211.00,VWS V14.01,2013-11-23 14:21:00,
2013-11-23 08:26:00,23.6,16.5,30.80,WNW,294,3.0,6.0,74,0.00,,CLR,0.00,199.00,VWS V14.01,2013-11-23 14:26:00,
2013-11-23 08:31:00,23.6,16.5,30.80,WNW,292,7.0,8.0,74,0.00,,CLR,0.00,197.00,VWS V14.01,2013-11-23 14:31:00,
2013-11-23 08:36:00,23.8,16.7,30.80,North,349,3.0,6.0,74,0.00,,CLR,0.00,258.00,VWS V14.01,2013-11-23 14:36:00,
2013-11-23 08:42:00,24.1,16.7,30.81,NW,310,6.0,11.0,73,0.00,,CLR,0.00,267.00,VWS V14.01,2013-11-23 14:42:00,
2013-11-23 08:47:00,24.2,16.8,30.80,WSW,246,5.0,11.0,73,0.00,,CLR,0.00,297.00,VWS V14.01,2013-11-23 14:47:00,
2013-11-23 08:52:00,24.2,16.8,30.81,North,360,7.0,13.0,73,0.00,,CLR,0.00,338.00,VWS V14.01,2013-11-23 14:52:00,
2013-11-23 08:57:00,24.5,17.1,30.81,North,360,3.0,8.0,73,0.00,,CLR,0.00,323.00,VWS V14.01,2013-11-23 14:57:00,
2013-11-23 09:03:00,24.8,17.1,30.82,West,266,9.0,10.0,72,0.00,,CLR,0.00,313.00,VWS V14.01,2013-11-23 15:03:00,
2013-11-23 09:08:00,24.7,16.6,30.82,NNE,19,12.0,15.0,71,0.00,,CLR,0.00,246.00,VWS V14.01,2013-11-23 15:08:00,
2013-11-23 09:13:00,24.5,16.5,30.82,North,351,6.0,14.0,71,0.00,,CLR,0.00,373.00,VWS V14.01,2013-11-23 15:13:00,
2013-11-23 09:19:00,24.5,16.5,30.82,WNW,295,6.0,8.0,71,0.00,,CLR,0.00,403.00,VWS V14.01,2013-11-23 15:19:00,
2013-11-23 09:24:00,24.5,16.5,30.82,NNW,335,9.0,13.0,71,0.00,,CLR,0.00,100.00,VWS V14.01,2013-11-23 15:24:00,
2013-11-23 09:30:00,24.7,16.3,30.82,North,360,10.0,15.0,70,0.00,,CLR,0.00,195.00,VWS V14.01,2013-11-23 15:30:00,
2013-11-23 09:35:00,24.7,16.0,30.82,NNW,327,5.0,13.0,69,0.00,,CLR,0.00,139.00,VWS V14.01,2013-11-23 15:35:00,
2013-11-23 09:40:00,25.0,16.6,30.82,NNW,338,15.0,15.0,70,0.00,,CLR,0.00,116.00,VWS V14.01,2013-11-23 15:40:00,
2013-11-23 09:45:00,24.7,16.0,30.83,WNW,299,2.0,10.0,69,0.00,,CLR,0.00,183.00,VWS V14.01,2013-11-23 15:45:00,
2013-11-23 09:50:00,24.5,16.1,30.83,NNW,327,9.0,12.0,70,0.00,,CLR,0.00,162.00,VWS V14.01,2013-11-23 15:50:00,
2013-11-23 09:55:00,24.4,15.7,30.84,NW,322,12.0,15.0,69,0.00,,CLR,0.00,153.00,VWS V14.01,2013-11-23 15:55:00,
2013-11-23 10:01:00,24.2,16.2,30.84,NNW,329,8.0,12.0,71,0.00,,OVC,0.00,151.00,VWS V14.01,2013-11-23 16:01:00,
2013-11-23 10:06:00,23.9,15.2,30.84,NW,323,17.0,17.0,69,0.00,,OVC,0.00,162.00,VWS V14.01,2013-11-23 16:06:00,
2013-11-23 10:12:00,23.9,15.2,30.84,WNW,292,11.0,13.0,69,0.00,,OVC,0.00,163.00,VWS V14.01,2013-11-23 16:12:00,
2013-11-23 10:18:00,23.9,14.9,30.85,NNW,345,9.0,18.0,68,0.00,,OVC,0.00,190.00,VWS V14.01,2013-11-23 16:18:00,
2013-11-23 10:24:00,23.9,14.9,30.84,WNW,283,8.0,14.0,68,0.00,,OVC,0.00,171.00,VWS V14.01,2013-11-23 16:24:00,
2013-11-23 10:30:00,23.6,14.9,30.85,NNW,338,8.0,9.0,69,0.00,,OVC,0.00,151.00,VWS V14.01,2013-11-23 16:30:00,
2013-11-23 10:35:00,23.6,14.6,30.85,North,351,6.0,8.0,68,0.00,,OVC,0.00,207.00,VWS V14.01,2013-11-23 16:35:00,
2013-11-23 10:40:00,23.8,15.1,30.85,NW,317,9.0,14.0,69,0.00,,OVC,0.00,148.00,VWS V14.01,2013-11-23 16:40:00,
2013-11-23 10:45:00,23.8,15.1,30.85,NW,313,8.0,12.0,69,0.00,,OVC,0.00,149.00,VWS V14.01,2013-11-23 16:45:00,
2013-11-23 10:51:00,23.6,14.6,30.85,NW,317,6.0,7.0,68,0.00,,OVC,0.00,195.00,VWS V14.01,2013-11-23 16:51:00,
2013-11-23 10:56:00,23.6,14.3,30.85,NW,313,7.0,14.0,67,0.00,,OVC,0.00,199.00,VWS V14.01,2013-11-23 16:56:00,
2013-11-23 11:02:00,23.8,14.1,30.85,NW,306,4.0,13.0,66,0.00,,OVC022,0.00,185.00,VWS V14.01,2013-11-23 17:02:00,
2013-11-23 11:07:00,23.8,13.8,30.85,WNW,294,4.0,15.0,65,0.00,,OVC022,0.00,135.00,VWS V14.01,2013-11-23 17:07:00,
2013-11-23 11:13:00,23.6,13.6,30.85,NW,326,7.0,10.0,65,0.00,,OVC022,0.00,306.00,VWS V14.01,2013-11-23 17:13:00,
2013-11-23 11:18:00,23.8,13.8,30.85,NW,324,8.0,12.0,65,0.00,,OVC022,0.00,243.00,VWS V14.01,2013-11-23 17:18:00,
2013-11-23 11:24:00,23.9,13.1,30.85,WNW,299,8.0,10.0,63,0.00,,OVC022,0.00,262.00,VWS V14.01,2013-11-23 17:24:00,
2013-11-23 11:30:00,23.9,13.1,30.85,NNW,340,17.0,17.0,63,0.00,,OVC022,0.00,200.00,VWS V14.01,2013-11-23 17:30:00,
2013-11-23 11:35:00,23.8,13.1,30.85,North,360,10.0,12.0,63,0.00,,OVC022,0.00,185.00,VWS V14.01,2013-11-23 17:35:00,
2013-11-23 11:41:00,23.9,13.5,30.85,NW,305,3.0,11.0,64,0.00,,OVC022,0.00,278.00,VWS V14.01,2013-11-23 17:41:00,
2013-11-23 11:46:00,24.1,13.0,30.85,NNW,338,16.0,16.0,62,0.00,,OVC022,0.00,149.00,VWS V14.01,2013-11-23 17:46:00,
2013-11-23 11:51:00,23.9,13.5,30.85,NNW,346,7.0,12.0,64,0.00,,OVC022,0.00,113.00,VWS V14.01,2013-11-23 17:51:00,
2013-11-23 11:57:00,23.5,13.1,30.85,NNW,342,5.0,14.0,64,0.00,,OVC022,0.00,109.00,VWS V14.01,2013-11-23 17:57:00,
2013-11-23 12:02:00,23.2,12.8,30.86,NW,321,10.0,15.0,64,0.00,,,0.00,156.00,VWS V14.01,2013-11-23 18:02:00,
2013-11-23 12:08:00,23.5,13.1,30.85,North,360,10.0,10.0,64,0.00,,,0.00,163.00,VWS V14.01,2013-11-23 18:08:00,
2013-11-23 12:13:00,23.5,12.4,30.85,WNW,283,6.0,18.0,62,0.00,,,0.00,153.00,VWS V14.01,2013-11-23 18:13:00,
2013-11-23 12:18:00,23.3,12.2,30.85,NNW,345,10.0,14.0,62,0.00,,,0.00,176.00,VWS V14.01,2013-11-23 18:18:00,
2013-11-23 12:23:00,23.3,11.9,30.85,North,360,7.0,18.0,61,0.00,,,0.00,160.00,VWS V14.01,2013-11-23 18:23:00,
2013-11-23 12:28:00,23.2,11.8,30.86,North,349,8.0,17.0,61,0.00,,,0.00,169.00,VWS V14.01,2013-11-23 18:28:00,
2013-11-23 12:34:00,23.0,11.6,30.86,NNW,333,8.0,10.0,61,0.00,,,0.00,169.00,VWS V14.01,2013-11-23 18:34:00,
2013-11-23 12:39:00,23.0,12.3,30.86,NW,314,6.0,13.0,63,0.00,,,0.00,148.00,VWS V14.01,2013-11-23 18:39:00,
2013-11-23 12:44:00,22.9,12.6,30.86,North,360,8.0,11.0,64,0.00,,,0.00,181.00,VWS V14.01,2013-11-23 18:44:00,
2013-11-23 12:50:00,22.5,12.2,30.87,WNW,284,7.0,17.0,64,0.00,,,0.00,200.00,VWS V14.01,2013-11-23 18:50:00,
2013-11-23 12:55:00,22.5,11.5,30.87,NW,323,5.0,14.0,62,0.00,,,0.00,183.00,VWS V14.01,2013-11-23 18:55:00,
2013-11-23 13:00:00,22.7,11.3,30.87,WNW,298,7.0,11.0,61,0.00,,BKN029,0.00,668.00,VWS V14.01,2013-11-23 19:00:00,
2013-11-23 13:05:00,23.2,11.0,30.87,North,360,8.0,16.0,59,0.00,,BKN029,0.00,666.00,VWS V14.01,2013-11-23 19:05:00,
2013-11-23 13:10:00,23.5,10.9,30.86,NW,319,8.0,11.0,58,0.00,,BKN029,0.00,221.00,VWS V14.01,2013-11-23 19:10:00,
2013-11-23 13:15:00,23.5,10.9,30.87,NE,45,6.0,12.0,58,0.00,,BKN029,0.00,178.00,VWS V14.01,2013-11-23 19:15:00,
2013-11-23 13:21:00,23.3,11.5,30.88,NNW,344,10.0,19.0,60,0.00,,BKN029,0.00,111.00,VWS V14.01,2013-11-23 19:21:00,
2013-11-23 13:27:00,22.7,11.6,30.88,WNW,303,7.0,14.0,62,0.00,,BKN029,0.00,105.00,VWS V14.01,2013-11-23 19:27:00,
2013-11-23 13:32:00,22.5,12.2,30.88,NW,322,8.0,14.0,64,0.00,,BKN029,0.00,134.00,VWS V14.01,2013-11-23 19:32:00,
2013-11-23 13:37:00,22.4,11.4,30.88,West,271,7.0,16.0,62,0.00,,BKN029,0.00,134.00,VWS V14.01,2013-11-23 19:37:00,
2013-11-23 13:42:00,22.4,11.0,30.88,WNW,303,6.0,13.0,61,0.00,,BKN029,0.00,192.00,VWS V14.01,2013-11-23 19:42:00,
2013-11-23 13:48:00,22.4,11.0,30.88,NNW,336,4.0,10.0,61,0.00,,BKN029,0.00,127.00,VWS V14.01,2013-11-23 19:48:00,
2013-11-23 13:54:00,22.4,10.6,30.89,NW,304,9.0,13.0,60,0.00,,BKN029,0.00,163.00,VWS V14.01,2013-11-23 19:54:00,
2013-11-23 14:00:00,22.4,9.9,30.89,NNW,335,7.0,12.0,58,0.00,,BKN029,0.00,148.00,VWS V14.01,2013-11-23 20:00:00,
2013-11-23 14:05:00,22.4,9.5,30.89,NNW,327,4.0,10.0,57,0.00,,,0.00,294.00,VWS V14.01,2013-11-23 20:05:00,
2013-11-23 14:11:00,22.9,10.0,30.89,NW,306,1.0,8.0,57,0.00,,,0.00,209.00,VWS V14.01,2013-11-23 20:11:00,
2013-11-23 14:16:00,23.2,10.2,30.89,NW,312,3.0,8.0,57,0.00,,,0.00,171.00,VWS V14.01,2013-11-23 20:16:00,
2013-11-23 14:21:00,23.2,10.2,30.89,NW,321,6.0,8.0,57,0.00,,,0.00,100.00,VWS V14.01,2013-11-23 20:21:00,
2013-11-23 14:26:00,22.7,9.0,30.89,North,360,3.0,10.0,55,0.00,,,0.00,77.00,VWS V14.01,2013-11-23 20:26:00,
2013-11-23 14:31:00,22.4,8.7,30.89,WNW,298,6.0,11.0,55,0.00,,,0.00,53.00,VWS V14.01,2013-11-23 20:31:00,
2013-11-23 14:36:00,22.1,8.4,30.89,WNW,296,5.0,6.0,55,0.00,,,0.00,155.00,VWS V14.01,2013-11-23 20:36:00,
2013-11-23 14:42:00,22.4,9.1,30.90,WNW,300,2.0,9.0,56,0.00,,,0.00,102.00,VWS V14.01,2013-11-23 20:42:00,
2013-11-23 14:48:00,22.4,8.7,30.90,North,350,7.0,11.0,55,0.00,,,0.00,100.00,VWS V14.01,2013-11-23 20:48:00,
2013-11-23 14:53:00,22.5,9.2,30.90,NNW,344,5.0,16.0,56,0.00,,,0.00,311.00,VWS V14.01,2013-11-23 20:53:00,
2013-11-23 14:59:00,23.0,8.4,30.90,North,360,8.0,17.0,53,0.00,,,0.00,253.00,VWS V14.01,2013-11-23 20:59:00,
2013-11-23 15:04:00,22.9,7.9,30.91,NNW,330,9.0,15.0,52,0.00,,SCT033,0.00,51.00,VWS V14.01,2013-11-23 21:04:00,
2013-11-23 15:09:00,22.7,7.7,30.91,NNW,341,7.0,8.0,52,0.00,,SCT033,0.00,234.00,VWS V14.01,2013-11-23 21:09:00,
2013-11-23 15:14:00,22.7,7.3,30.91,NW,322,4.0,8.0,51,0.00,,SCT033,0.00,214.00,VWS V14.01,2013-11-23 21:14:00,
2013-11-23 15:19:00,22.9,7.9,30.91,NNW,333,4.0,10.0,52,0.00,,SCT033,0.00,202.00,VWS V14.01,2013-11-23 21:19:00,
2013-11-23 15:24:00,22.9,7.9,30.91,NNW,340,3.0,7.0,52,0.00,,SCT033,0.00,193.00,VWS V14.01,2013-11-23 21:24:00,
2013-11-23 15:30:00,22.9,8.3,30.91,NNW,336,4.0,9.0,53,0.00,,SCT033,0.00,56.00,VWS V14.01,2013-11-23 21:30:00,
2013-11-23 15:35:00,22.7,8.1,30.92,WNW,282,11.0,14.0,53,0.00,,SCT033,0.00,54.00,VWS V14.01,2013-11-23 21:35:00,
2013-11-23 15:40:00,22.5,8.0,30.91,NNW,327,4.0,9.0,53,0.00,,SCT033,0.00,62.00,VWS V14.01,2013-11-23 21:40:00,
2013-11-23 15:45:00,22.5,7.5,30.92,West,278,5.0,8.0,52,0.00,,SCT033,0.00,40.00,VWS V14.01,2013-11-23 21:45:00,
2013-11-23 15:50:00,22.5,7.5,30.92,WNW,284,3.0,7.0,52,0.00,,SCT033,0.00,37.00,VWS V14.01,2013-11-23 21:50:00,
2013-11-23 15:55:00,22.4,7.9,30.92,NW,305,4.0,5.0,53,0.00,,SCT033,0.00,30.00,VWS V14.01,2013-11-23 21:55:00,
2013-11-23 16:01:00,22.1,7.2,30.92,NW,319,9.0,13.0,52,0.00,,FEW035,0.00,25.00,VWS V14.01,2013-11-23 22:01:00,
2013-11-23 16:06:00,21.9,6.6,30.93,NW,313,5.0,13.0,51,0.00,,FEW035,0.00,33.00,VWS V14.01,2013-11-23 22:06:00,
2013-11-23 16:12:00,21.9,7.4,30.93,NNW,327,7.0,11.0,53,0.00,,FEW035,0.00,33.00,VWS V14.01,2013-11-23 22:12:00,
2013-11-23 16:18:00,21.9,7.8,30.94,North,351,8.0,11.0,54,0.00,,FEW035,0.00,12.00,VWS V14.01,2013-11-23 22:18:00,
2013-11-23 16:23:00,21.8,6.9,30.94,North,351,4.0,7.0,52,0.00,,FEW035,0.00,11.00,VWS V14.01,2013-11-23 22:23:00,
2013-11-23 16:29:00,21.4,6.9,30.94,NW,319,6.0,6.0,53,0.00,,FEW035,0.00,5.00,VWS V14.01,2013-11-23 22:29:00,
2013-11-23 16:35:00,21.3,7.3,30.94,NNW,333,11.0,11.0,54,0.00,,FEW035,0.00,0.00,VWS V14.01,2013-11-23 22:35:00,
2013-11-23 16:41:00,21.3,7.3,30.94,North,349,2.0,5.0,54,0.00,,FEW035,0.00,0.00,VWS V14.01,2013-11-23 22:41:00,
2013-11-23 16:46:00,21.1,7.5,30.94,West,275,4.0,4.0,55,0.00,,FEW035,0.00,0.00,VWS V14.01,2013-11-23 22:46:00,
2013-11-23 16:52:00,21.0,7.8,30.94,NW,325,4.0,10.0,56,0.00,,FEW035,0.00,0.00,VWS V14.01,2013-11-23 22:52:00,
2013-11-23 16:57:00,20.8,8.0,30.94,NW,325,4.0,6.0,57,0.00,,FEW035,0.00,0.00,VWS V14.01,2013-11-23 22:57:00,
2013-11-23 17:02:00,20.6,8.2,30.95,NW,325,2.0,3.0,58,0.00,,FEW037,0.00,0.00,VWS V14.01,2013-11-23 23:02:00,
2013-11-23 17:08:00,20.5,7.7,30.95,West,281,1.0,5.0,57,0.00,,FEW037,0.00,0.00,VWS V14.01,2013-11-23 23:08:00,
2013-11-23 17:12:00,20.5,8.1,30.95,NNW,327,4.0,6.0,58,0.00,,FEW037,0.00,0.00,VWS V14.01,2013-11-23 23:12:00,
2013-11-23 17:17:00,20.3,7.9,30.95,NW,326,3.0,7.0,58,0.00,,FEW037,0.00,0.00,VWS V14.01,2013-11-23 23:17:00,
2013-11-23 17:22:00,20.3,7.9,30.96,NW,310,1.0,3.0,58,0.00,,FEW037,0.00,0.00,VWS V14.01,2013-11-23 23:22:00,
2013-11-23 17:27:00,20.2,7.8,30.96,NW,317,1.0,7.0,58,0.00,,FEW037,0.00,0.00,VWS V14.01,2013-11-23 23:27:00,
2013-11-23 17:32:00,20.2,7.8,30.96,NNW,331,4.0,7.0,58,0.00,,FEW037,0.00,0.00,VWS V14.01,2013-11-23 23:32:00,
2013-11-23 17:37:00,20.2,7.8,30.96,NW,324,4.0,6.0,58,0.00,,FEW037,0.00,0.00,VWS V14.01,2013-11-23 23:37:00,
2013-11-23 17:43:00,20.0,8.0,30.96,NW,323,6.0,8.0,59,0.00,,FEW037,0.00,0.00,VWS V14.01,2013-11-23 23:43:00,
2013-11-23 17:49:00,19.9,7.9,30.96,NW,319,3.0,5.0,59,0.00,,FEW037,0.00,0.00,VWS V14.01,2013-11-23 23:49:00,
2013-11-23 17:54:00,19.9,7.9,30.96,NW,323,3.0,10.0,59,0.00,,FEW037,0.00,0.00,VWS V14.01,2013-11-23 23:54:00,
2013-11-23 18:00:00,19.7,7.3,30.97,NW,319,7.0,7.0,58,0.00,,CLR,0.00,0.00,VWS V14.01,2013-11-24 00:00:00,
2013-11-23 18:05:00,19.7,7.3,30.97,NW,321,3.0,9.0,58,0.00,,CLR,0.00,0.00,VWS V14.01,2013-11-24 00:05:00,
2013-11-23 18:10:00,19.7,7.3,30.97,NNE,15,5.0,6.0,58,0.00,,CLR,0.00,0.00,VWS V14.01,2013-11-24 00:10:00,
2013-11-23 18:15:00,19.5,7.1,30.98,NNW,327,7.0,7.0,58,0.00,,CLR,0.00,0.00,VWS V14.01,2013-11-24 00:15:00,
2013-11-23 18:20:00,19.4,7.1,30.98,NW,309,7.0,7.0,58,0.00,,CLR,0.00,0.00,VWS V14.01,2013-11-24 00:20:00,
2013-11-23 18:25:00,19.4,7.1,30.98,NNW,344,4.0,9.0,58,0.00,,CLR,0.00,0.00,VWS V14.01,2013-11-24 00:25:00,
2013-11-23 18:30:00,19.2,6.9,30.98,North,350,5.0,8.0,58,0.00,,CLR,0.00,0.00,VWS V14.01,2013-11-24 00:30:00,
2013-11-23 18:35:00,19.2,7.2,30.98,NNW,343,3.0,6.0,59,0.00,,CLR,0.00,0.00,VWS V14.01,2013-11-24 00:35:00,
2013-11-23 18:40:00,19.1,7.1,30.98,NW,324,1.0,9.0,59,0.00,,CLR,0.00,0.00,VWS V14.01,2013-11-24 00:40:00,
2013-11-23 18:45:00,18.9,6.9,30.98,NNW,338,3.0,8.0,59,0.00,,CLR,0.00,0.00,VWS V14.01,2013-11-24 00:45:00,
2013-11-23 18:50:00,18.9,6.6,30.98,NNE,13,6.0,9.0,58,0.00,,CLR,0.00,0.00,VWS V14.01,2013-11-24 00:50:00,
2013-11-23 18:55:00,18.9,6.6,30.99,NNW,347,3.0,8.0,58,0.00,,CLR,0.00,0.00,VWS V14.01,2013-11-24 00:55:00,
2013-11-23 19:00:00,18.8,6.5,30.98,NW,323,5.0,7.0,58,0.00,,CLR,0.00,0.00,VWS V14.01,2013-11-24 01:00:00,
2013-11-23 19:05:00,18.8,6.5,30.99,NW,319,4.0,5.0,58,0.00,,CLR,0.00,0.00,VWS V14.01,2013-11-24 01:05:00,
2013-11-23 19:10:00,18.6,6.3,30.99,NW,324,4.0,8.0,58,0.00,,CLR,0.00,0.00,VWS V14.01,2013-11-24 01:10:00,
2013-11-23 19:15:00,18.6,6.3,30.99,NNW,333,6.0,11.0,58,0.00,,CLR,0.00,0.00,VWS V14.01,2013-11-24 01:15:00,
2013-11-23 19:20:00,18.4,6.1,31.00,NW,313,4.0,7.0,58,0.00,,CLR,0.00,0.00,VWS V14.01,2013-11-24 01:20:00,
2013-11-23 19:25:00,18.4,6.1,30.99,North,350,2.0,6.0,58,0.00,,CLR,0.00,0.00,VWS V14.01,2013-11-24 01:25:00,
2013-11-23 19:30:00,18.3,6.4,30.99,NNW,332,7.0,7.0,59,0.00,,CLR,0.00,0.00,VWS V14.01,2013-11-24 01:30:00,
2013-11-23 19:35:00,18.1,6.2,30.99,North,360,5.0,9.0,59,0.00,,CLR,0.00,0.00,VWS V14.01,2013-11-24 01:35:00,
2013-11-23 19:40:00,18.1,6.2,30.99,NNW,327,3.0,11.0,59,0.00,,CLR,0.00,0.00,VWS V14.01,2013-11-24 01:40:00,
2013-11-23 19:45:00,18.0,6.5,30.99,NNW,333,6.0,10.0,60,0.00,,CLR,0.00,0.00,VWS V14.01,2013-11-24 01:45:00,
2013-11-23 19:50:00,18.0,6.1,30.99,NNW,328,8.0,9.0,59,0.00,,CLR,0.00,0.00,VWS V14.01,2013-11-24 01:50:00,
2013-11-23 19:55:00,18.0,6.5,30.99,NNW,342,5.0,7.0,60,0.00,,CLR,0.00,0.00,VWS V14.01,2013-11-24 01:55:00,
2013-11-23 20:00:00,18.0,6.5,30.99,North,360,8.0,10.0,60,0.00,,CLR,0.00,0.00,VWS V14.01,2013-11-24 02:00:00,
2013-11-23 20:05:00,17.8,6.3,31.00,NNW,341,4.0,10.0,60,0.00,,CLR,0.00,0.00,VWS V14.01,2013-11-24 02:05:00,
2013-11-23 20:10:00,17.8,6.6,31.00,NW,308,6.0,7.0,61,0.00,,CLR,0.00,0.00,VWS V14.01,2013-11-24 02:10:00,
2013-11-23 20:15:00,17.7,6.6,31.00,NW,321,5.0,10.0,61,0.00,,CLR,0.00,0.00,VWS V14.01,2013-11-24 02:15:00,
2013-11-23 20:20:00,17.5,6.4,31.00,NW,321,3.0,7.0,61,0.00,,CLR,0.00,0.00,VWS V14.01,2013-11-24 02:20:00,
2013-11-23 20:25:00,17.5,6.4,31.00,NW,315,4.0,9.0,61,0.00,,CLR,0.00,0.00,VWS V14.01,2013-11-24 02:25:00,
2013-11-23 20:30:00,17.5,6.4,31.00,NNW,340,6.0,10.0,61,0.00,,CLR,0.00,0.00,VWS V14.01,2013-11-24 02:30:00,
2013-11-23 20:35:00,17.3,6.2,31.00,NW,317,7.0,8.0,61,0.00,,CLR,0.00,0.00,VWS V14.01,2013-11-24 02:35:00,
2013-11-23 20:40:00,17.3,6.2,31.00,NW,323,5.0,9.0,61,0.00,,CLR,0.00,0.00,VWS V14.01,2013-11-24 02:40:00,
2013-11-23 20:45:00,17.2,6.1,31.00,North,10,4.0,8.0,61,0.00,,CLR,0.00,0.00,VWS V14.01,2013-11-24 02:45:00,
2013-11-23 20:50:00,17.2,6.4,31.01,NNW,340,5.0,9.0,62,0.00,,CLR,0.00,0.00,VWS V14.01,2013-11-24 02:50:00,
2013-11-23 20:55:00,17.0,6.2,31.00,NNW,339,1.0,6.0,62,0.00,,CLR,0.00,0.00,VWS V14.01,2013-11-24 02:55:00,
2013-11-23 21:01:00,16.9,6.2,31.00,NNW,329,3.0,7.0,62,0.00,,CLR,0.00,0.00,VWS V14.01,2013-11-24 03:01:00,
2013-11-23 21:06:00,16.7,6.0,31.00,NW,315,11.0,14.0,62,0.00,,CLR,0.00,0.00,VWS V14.01,2013-11-24 03:06:00,
2013-11-23 21:11:00,16.7,5.6,31.00,NW,322,5.0,7.0,61,0.00,,CLR,0.00,0.00,VWS V14.01,2013-11-24 03:11:00,
2013-11-23 21:16:00,16.7,5.6,31.01,NW,319,6.0,7.0,61,0.00,,CLR,0.00,0.00,VWS V14.01,2013-11-24 03:16:00,
2013-11-23 21:21:00,16.7,5.6,31.01,NNE,14,7.0,11.0,61,0.00,,CLR,0.00,0.00,VWS V14.01,2013-11-24 03:21:00,
2013-11-23 21:26:00,16.5,5.4,31.02,NNW,330,1.0,9.0,61,0.00,,CLR,0.00,0.00,VWS V14.01,2013-11-24 03:26:00,
2013-11-23 21:31:00,16.5,5.8,31.02,NNW,328,3.0,6.0,62,0.00,,CLR,0.00,0.00,VWS V14.01,2013-11-24 03:31:00,
2013-11-23 21:36:00,16.4,5.7,31.02,North,350,3.0,10.0,62,0.00,,CLR,0.00,0.00,VWS V14.01,2013-11-24 03:36:00,
2013-11-23 21:41:00,16.2,5.8,31.02,NW,319,5.0,7.0,63,0.00,,CLR,0.00,0.00,VWS V14.01,2013-11-24 03:41:00,
2013-11-23 21:46:00,16.2,5.8,31.02,NW,313,5.0,9.0,63,0.00,,CLR,0.00,0.00,VWS V14.01,2013-11-24 03:46:00,
2013-11-23 21:51:00,16.1,5.7,31.03,NNW,327,4.0,8.0,63,0.00,,CLR,0.00,0.00,VWS V14.01,2013-11-24 03:51:00,
2013-11-23 21:56:00,16.1,5.7,31.03,NNW,346,4.0,8.0,63,0.00,,CLR,0.00,0.00,VWS V14.01,2013-11-24 03:56:00,
2013-11-23 22:01:00,15.9,5.6,31.03,NW,322,2.0,8.0,63,0.00,,CLR,0.00,0.00,VWS V14.01,2013-11-24 04:01:00,
2013-11-23 22:06:00,15.9,5.6,31.03,NW,320,3.0,9.0,63,0.00,,CLR,0.00,0.00,VWS V14.01,2013-11-24 04:06:00,
2013-11-23 22:11:00,15.9,5.2,31.03,NNW,342,4.0,12.0,62,0.00,,CLR,0.00,0.00,VWS V14.01,2013-11-24 04:11:00,
2013-11-23 22:16:00,15.9,5.2,31.03,NW,304,6.0,10.0,62,0.00,,CLR,0.00,0.00,VWS V14.01,2013-11-24 04:16:00,
2013-11-23 22:21:00,15.7,5.0,31.03,NW,322,3.0,11.0,62,0.00,,CLR,0.00,0.00,VWS V14.01,2013-11-24 04:21:00,
2013-11-23 22:26:00,15.7,5.0,31.03,NNW,342,4.0,6.0,62,0.00,,CLR,0.00,0.00,VWS V14.01,2013-11-24 04:26:00,
2013-11-23 22:31:00,15.6,5.3,31.03,North,360,4.0,10.0,63,0.00,,CLR,0.00,0.00,VWS V14.01,2013-11-24 04:31:00,
2013-11-23 22:36:00,15.6,5.3,31.03,NNW,346,7.0,9.0,63,0.00,,CLR,0.00,0.00,VWS V14.01,2013-11-24 04:36:00,
2013-11-23 22:41:00,15.4,5.1,31.02,NNW,336,3.0,9.0,63,0.00,,CLR,0.00,0.00,VWS V14.01,2013-11-24 04:41:00,
2013-11-23 22:46:00,15.4,5.4,31.02,NW,325,2.0,6.0,64,0.00,,CLR,0.00,0.00,VWS V14.01,2013-11-24 04:46:00,
2013-11-23 22:51:00,15.2,5.2,31.02,NNW,329,1.0,7.0,64,0.00,,CLR,0.00,0.00,VWS V14.01,2013-11-24 04:51:00,
2013-11-23 22:56:00,15.2,5.2,31.02,North,351,4.0,8.0,64,0.00,,CLR,0.00,0.00,VWS V14.01,2013-11-24 04:56:00,
2013-11-23 23:01:00,15.2,5.2,31.02,NNW,347,3.0,6.0,64,0.00,,CLR,0.00,0.00,VWS V14.01,2013-11-24 05:01:00,
2013-11-23 23:02:00,15.2,5.2,31.02,NNW,342,10.0,10.0,64,0.00,,CLR,0.00,0.00,VWS V14.01,2013-11-24 05:02:00,
2013-11-23 23:03:00,15.2,5.2,31.02,NNW,339,7.0,11.0,64,0.00,,CLR,0.00,0.00,VWS V14.01,2013-11-24 05:03:00,
2013-11-23 23:04:00,15.2,5.2,31.02,NNW,345,5.0,10.0,64,0.00,,CLR,0.00,0.00,VWS V14.01,2013-11-24 05:04:00,
2013-11-23 23:06:00,15.1,5.1,31.02,NNW,336,10.0,10.0,64,0.00,,CLR,0.00,0.00,VWS V14.01,2013-11-24 05:06:00,
2013-11-23 23:12:00,15.1,5.1,31.02,NW,321,4.0,6.0,64,0.00,,CLR,0.00,0.00,VWS V14.01,2013-11-24 05:12:00,
2013-11-23 23:17:00,14.9,4.9,31.02,NNW,333,5.0,7.0,64,0.00,,CLR,0.00,0.00,VWS V14.01,2013-11-24 05:17:00,
2013-11-23 23:23:00,14.8,4.8,31.01,North,351,4.0,8.0,64,0.00,,CLR,0.00,0.00,VWS V14.01,2013-11-24 05:23:00,
2013-11-23 23:28:00,14.8,4.8,31.01,NNW,341,3.0,7.0,64,0.00,,CLR,0.00,0.00,VWS V14.01,2013-11-24 05:28:00,
2013-11-23 23:33:00,14.6,5.0,31.01,NNW,335,5.0,8.0,65,0.00,,CLR,0.00,0.00,VWS V14.01,2013-11-24 05:33:00,
2013-11-23 23:38:00,14.6,5.0,31.01,WNW,301,6.0,11.0,65,0.00,,CLR,0.00,0.00,VWS V14.01,2013-11-24 05:38:00,
2013-11-23 23:43:00,14.4,4.8,31.01,NW,317,2.0,10.0,65,0.00,,CLR,0.00,0.00,VWS V14.01,2013-11-24 05:43:00,
2013-11-23 23:48:00,14.4,4.8,31.01,NNE,23,3.0,8.0,65,0.00,,CLR,0.00,0.00,VWS V14.01,2013-11-24 05:48:00,
2013-11-23 23:53:00,14.4,5.1,31.01,NNW,338,5.0,13.0,66,0.00,,CLR,0.00,0.00,VWS V14.01,2013-11-24 05:53:00,
2013-11-23 23:58:00,14.3,5.0,31.01,NNW,343,7.0,9.0,66,0.00,,CLR,0.00,0.00,VWS V14.01,2013-11-24 05:58:00,